Time,TemperatureF,DewpointF,PressureIn,WindDirection,WindDirectionDegrees,WindSpeedMPH,WindSpeedGustMPH,Humidity,HourlyPrecipIn,Conditions,Clouds,dailyrainin,SoftwareType,DateUTC
2013-05-03 00:00:00,49.9,49.6,30.29,NE,46,2.0,2.0,99,0.00,,OVC007,-99.99,VWS V12.06,2013-05-03 04:00:00,
2013-05-03 00:02:00,49.3,47.9,30.24,ESE,109,1.0,5.0,95,0.01,,OVC007,-99.99,VWS V12.06,2013-05-03 04:02:00,
2013-05-03 00:30:00,49.7,49.4,30.28,ENE,59,2.0,2.0,99,0.01,,OVC007,-99.99,VWS V12.06,2013-05-03 04:30:00,
2013-05-03 00:32:00,49.7,49.4,30.26,NE,55,5.0,7.0,99,0.01,,OVC007,-99.99,VWS V12.06,2013-05-03 04:32:00,
2013-05-03 01:00:00,49.6,49.3,30.27,ENE,63,4.0,5.0,99,0.01,,OVC005,-99.99,VWS V12.06,2013-05-03 05:00:00,
2013-05-03 01:30:00,49.4,49.1,30.26,NE,51,2.0,3.0,99,0.00,,OVC005,-99.99,VWS V12.06,2013-05-03 05:30:00,
2013-05-03 02:00:00,49.2,48.9,30.25,NE,41,4.0,4.0,99,0.00, DZ,,-99.99,VWS V12.06,2013-05-03 06:00:00,
2013-05-03 02:30:00,49.1,48.8,30.24,NE,42,2.0,4.0,99,0.00, DZ,,-99.99,VWS V12.06,2013-05-03 06:30:00,
2013-05-03 03:00:00,49.0,48.7,30.22,NNE,16,0.0,2.0,99,0.00, DZ,,-99.99,VWS V12.06,2013-05-03 07:00:00,
2013-05-03 03:30:00,48.8,48.5,30.22,NE,44,5.0,5.0,99,0.00, DZ,,-99.99,VWS V12.06,2013-05-03 07:30:00,
2013-05-03 04:00:00,48.8,48.5,30.21,ENE,70,2.0,2.0,99,0.00,,OVC010,-99.99,VWS V12.06,2013-05-03 08:00:00,
2013-05-03 04:30:00,48.9,48.6,30.21,East,86,2.0,3.0,99,0.00,,OVC010,-99.99,VWS V12.06,2013-05-03 08:30:00,
2013-05-03 05:00:00,49.1,48.8,30.21,ENE,61,3.0,3.0,99,0.00,,OVC011,-99.99,VWS V12.06,2013-05-03 09:00:00,
2013-05-03 05:30:00,49.0,48.7,30.21,ENE,76,7.0,7.0,99,0.00,,OVC011,-99.99,VWS V12.06,2013-05-03 09:30:00,
2013-05-03 06:00:00,48.4,48.1,30.21,East,81,13.0,13.0,99,0.01,,OVC013,-99.99,VWS V12.06,2013-05-03 10:00:00,
2013-05-03 06:30:00,47.1,46.8,30.23,ENE,65,3.0,3.0,99,0.02,,OVC013,-99.99,VWS V12.06,2013-05-03 10:30:00,
2013-05-03 07:00:00,46.7,46.4,30.24,ENE,71,2.0,7.0,99,0.02, DZ,,-99.99,VWS V12.06,2013-05-03 11:00:00,
2013-05-03 07:30:00,46.3,46.0,30.24,NNE,29,6.0,6.0,99,0.01,,OVC016,-99.99,VWS V12.06,2013-05-03 11:30:00,
2013-05-03 08:00:00,45.8,45.5,30.25,NE,54,9.0,11.0,99,0.00,,OVC003,-99.99,VWS V12.06,2013-05-03 12:00:00,
2013-05-03 08:30:00,45.8,45.5,30.25,ENE,77,2.0,4.0,99,0.00,,OVC003,-99.99,VWS V12.06,2013-05-03 12:30:00,
2013-05-03 09:00:00,46.1,45.8,30.26,ENE,71,7.0,7.0,99,0.00,,OVC009,-99.99,VWS V12.06,2013-05-03 13:00:00,
2013-05-03 09:30:00,46.0,45.7,30.26,ENE,66,5.0,5.0,99,0.00, BR,,-99.99,VWS V12.06,2013-05-03 13:30:00,
2013-05-03 10:00:00,46.6,46.3,30.25,NE,39,6.0,6.0,99,0.00,,BKN014,-99.99,VWS V12.06,2013-05-03 14:00:00,
2013-05-03 10:30:00,47.9,47.6,30.26,ENE,61,2.0,2.0,99,0.01,,OVC015,-99.99,VWS V12.06,2013-05-03 14:30:00,
2013-05-03 11:00:00,48.2,47.4,30.26,NE,50,5.0,8.0,97,0.01,,CLR,-99.99,VWS V12.06,2013-05-03 15:00:00,
2013-05-03 11:30:00,49.2,48.1,30.26,ENE,61,7.0,7.0,96,0.00,,CLR,-99.99,VWS V12.06,2013-05-03 15:30:00,
2013-05-03 12:00:00,50.8,48.8,30.26,NE,45,5.0,5.0,93,0.00,,SCT027,-99.99,VWS V12.06,2013-05-03 16:00:00,
2013-05-03 12:30:00,52.5,49.0,30.25,ENE,68,5.0,5.0,88,0.00,,SCT027,-99.99,VWS V12.06,2013-05-03 16:30:00,
2013-05-03 13:00:00,53.0,48.3,30.24,ESE,104,2.0,3.0,84,0.00,,CLR,-99.99,VWS V12.06,2013-05-03 17:00:00,
2013-05-03 13:30:00,53.8,47.8,30.23,ESE,122,4.0,4.0,80,0.00,,CLR,-99.99,VWS V12.06,2013-05-03 17:30:00,
2013-05-03 14:00:00,54.3,47.6,30.22,ENE,63,3.0,3.0,78,0.00,,CLR,-99.99,VWS V12.06,2013-05-03 18:00:00,
2013-05-03 14:30:00,55.3,47.9,30.22,NE,52,9.0,9.0,76,0.00,,CLR,-99.99,VWS V12.06,2013-05-03 18:30:00,
2013-05-03 15:00:00,55.5,46.3,30.21,ENE,60,3.0,8.0,71,0.00,,SCT031,-99.99,VWS V12.06,2013-05-03 19:00:00,
2013-05-03 15:30:00,55.0,45.8,30.20,East,98,5.0,5.0,71,0.00,,SCT031,-99.99,VWS V12.06,2013-05-03 19:30:00,
2013-05-03 16:00:00,55.5,46.3,30.20,NE,53,3.0,6.0,71,0.00,,SCT033,-99.99,VWS V12.06,2013-05-03 20:00:00,
2013-05-03 16:30:00,55.5,47.0,30.19,ENE,63,1.0,1.0,73,0.00,,SCT033,-99.99,VWS V12.06,2013-05-03 20:30:00,
2013-05-03 17:00:00,55.1,46.2,30.18,East,96,5.0,5.0,72,0.00,,SCT037,-99.99,VWS V12.06,2013-05-03 21:00:00,
2013-05-03 17:30:00,55.3,46.1,30.18,NE,47,6.0,6.0,71,0.00,,SCT037,-99.99,VWS V12.06,2013-05-03 21:30:00,
2013-05-03 18:00:00,54.8,45.6,30.18,ESE,102,3.0,4.0,71,0.00,,SCT034,-99.99,VWS V12.06,2013-05-03 22:00:00,
2013-05-03 18:30:00,54.1,45.3,30.18,ENE,65,7.0,9.0,72,0.00,,SCT034,-99.99,VWS V12.06,2013-05-03 22:30:00,
2013-05-03 19:00:00,53.5,45.8,30.17,ENE,63,5.0,5.0,75,0.00,,BKN070,-99.99,VWS V12.06,2013-05-03 23:00:00,
2013-05-03 19:30:00,53.1,46.1,30.17,NE,51,1.0,1.0,77,0.00,,BKN070,-99.99,VWS V12.06,2013-05-03 23:30:00,
2013-05-03 20:00:00,52.9,46.6,30.17,ENE,78,4.0,5.0,79,0.00,,OVC065,-99.99,VWS V12.06,2013-05-04 00:00:00,
2013-05-03 20:30:00,52.5,47.2,30.17,ENE,68,5.0,5.0,82,0.00,,OVC065,-99.99,VWS V12.06,2013-05-04 00:30:00,
2013-05-03 21:00:00,52.1,47.1,30.17,ENE,69,5.0,11.0,83,0.00,,OVC042,-99.99,VWS V12.06,2013-05-04 01:00:00,
2013-05-03 21:30:00,51.9,47.2,30.17,East,82,8.0,8.0,84,0.00,,OVC042,-99.99,VWS V12.06,2013-05-04 01:30:00,
2013-05-03 22:00:00,51.6,47.6,30.17,NE,42,7.0,7.0,86,0.00,,OVC029,-99.99,VWS V12.06,2013-05-04 02:00:00,
2013-05-03 22:30:00,51.2,47.5,30.17,East,80,8.0,10.0,87,0.00,,OVC029,-99.99,VWS V12.06,2013-05-04 02:30:00,
2013-05-03 23:00:00,50.8,47.1,30.17,East,80,19.0,19.0,87,0.00,,OVC034,-99.99,VWS V12.06,2013-05-04 03:00:00,
2013-05-03 23:30:00,50.1,45.5,30.16,ENE,75,9.0,11.0,84,0.00,,OVC034,-99.99,VWS V12.06,2013-05-04 03:30:00,